Time;durP1;ratioP1;P1;durP2;ratioP2;P2;SDS_P1;SDS_P2;PMS_P1;PMS_P2;Temp;Humidity;BMP_temperature;BMP_pressure;BME280_temperature;BME280_humidity;BME280_pressure;Samples;Min_cycle;Max_cycle;Signal;HPM_P1;HPM_P2
2021/05/26 00:01:15;;;;;;;;;;;;;;;17.25;97.26;93306.66;5091646;28;19953;-90
2021/05/26 00:03:41;;;;;;;;;;;;;;;17.27;96.42;93301.97;5091464;28;20469;-92
2021/05/26 00:06:08;;;;;;;;;;;;;;;17.28;96.00;93299.13;5091712;28;19928;-92
2021/05/26 00:08:35;;;;;;;;;;;;;;;17.23;96.25;93297.28;5091802;28;19966;-91
2021/05/26 00:11:01;;;;;;;;;;;;;;;17.19;97.27;93293.63;5091666;28;19924;-92
2021/05/26 00:13:28;;;;;;;;;;;;;;;17.13;97.40;93297.19;5091747;28;19974;-91
2021/05/26 00:15:54;;;;;;;;;;;;;;;17.14;97.16;93293.59;5091343;28;19939;-92
2021/05/26 00:18:21;;;;;;;;;;;;;;;17.16;96.77;93294.13;5091302;28;19931;-92
2021/05/26 00:20:47;;;;;;;;;;;;;;;17.17;97.29;93284.53;5091884;28;19932;-92
2021/05/26 00:23:15;;;;;;;;;;;;;;;17.11;97.21;93283.69;5091462;28;20015;-93
2021/05/26 00:25:41;;;;;;;;;;;;;;;17.14;97.20;93282.41;5091386;28;19963;-93
2021/05/26 00:28:07;;;;;;;;;;;;;;;17.16;97.36;93288.91;5091344;28;20019;-92
2021/05/26 00:30:36;;;;;;;;;;;;;;;17.19;98.56;93288.44;5091271;28;19970;-93
2021/05/26 00:33:02;;;;;;;;;;;;;;;17.08;99.82;93290.16;5090193;28;19931;-91
2021/05/26 00:35:28;;;;;;;;;;;;;;;17.18;99.16;93294.63;5090160;28;20009;-89
2021/05/26 00:37:54;;;;;;;;;;;;;;;17.29;97.96;93289.53;5090781;28;20286;-92
2021/05/26 00:40:21;;;;;;;;;;;;;;;17.28;97.98;93296.53;5090216;28;19924;-91
2021/05/26 00:42:47;;;;;;;;;;;;;;;17.23;98.50;93288.72;5091578;28;19924;-91
2021/05/26 00:45:17;;;;;;;;;;;;;;;17.18;98.89;93286.84;5090875;28;19928;-92
2021/05/26 00:47:44;;;;;;;;;;;;;;;17.16;99.43;93288.13;5090573;28;20379;-91
2021/05/26 00:50:11;;;;;;;;;;;;;;;17.17;98.98;93282.69;5091291;28;20035;-91
2021/05/26 00:52:37;;;;;;;;;;;;;;;17.15;99.87;93274.38;5090500;28;19931;-91
2021/05/26 00:55:04;;;;;;;;;;;;;;;17.17;99.42;93280.09;5090641;28;20103;-93
2021/05/26 00:57:34;;;;;;;;;;;;;;;17.18;99.44;93276.47;5090327;28;19924;-92
2021/05/26 01:00:00;;;;;;;;;;;;;;;17.25;99.81;93275.50;5090439;28;20421;-92
2021/05/26 01:02:26;;;;;;;;;;;;;;;17.40;97.48;93277.41;5090446;28;19970;-91
2021/05/26 01:04:53;;;;;;;;;;;;;;;17.44;97.49;93286.25;5090218;28;20399;-92
2021/05/26 01:07:19;;;;;;;;;;;;;;;17.45;98.40;93278.22;5090661;28;19932;-91
2021/05/26 01:09:48;;;;;;;;;;;;;;;17.46;97.94;93274.56;5090291;28;19970;-92
2021/05/26 01:12:14;;;;;;;;;;;;;;;17.48;97.89;93284.72;5090466;28;19928;-92
2021/05/26 01:14:41;;;;;;;;;;;;;;;17.48;98.19;93295.09;5089939;28;20399;-92
2021/05/26 01:17:07;;;;;;;;;;;;;;;17.55;97.66;93292.28;5090432;28;20006;-90
2021/05/26 01:19:33;;;;;;;;;;;;;;;17.55;99.02;93284.50;5090174;28;19924;-92
2021/05/26 01:22:00;;;;;;;;;;;;;;;17.56;98.24;93289.44;5090393;28;19928;-92
2021/05/26 01:24:33;;;;;;;;;;;;;;;17.56;98.41;93292.03;5090413;28;19958;-93
2021/05/26 01:27:01;;;;;;;;;;;;;;;17.52;98.38;93282.41;5089406;28;19932;-94
2021/05/26 01:29:34;;;;;;;;;;;;;;;17.60;98.02;93287.91;5089946;28;19924;-95
2021/05/26 01:32:01;;;;;;;;;;;;;;;17.63;97.94;93291.81;5092545;28;19924;-92
2021/05/26 01:34:27;;;;;;;;;;;;;;;17.52;100.00;93285.00;5090716;28;19954;-91
2021/05/26 01:36:53;;;;;;;;;;;;;;;17.39;100.00;93284.41;5090934;28;19928;-92
2021/05/26 01:39:23;;;;;;;;;;;;;;;17.41;100.00;93292.72;5089858;28;20335;-93
2021/05/26 01:45:23;;;;;;;;;;;;;;;17.35;100.00;93291.13;5091439;28;19977;-95
2021/05/26 01:47:50;;;;;;;;;;;;;;;17.35;100.00;93291.13;5089223;28;20445;-94
2021/05/26 01:50:34;;;;;;;;;;;;;;;17.15;100.00;93289.97;5091587;28;20009;-94
2021/05/26 01:53:02;;;;;;;;;;;;;;;17.08;100.00;93297.94;5090542;28;19939;-94
2021/05/26 01:55:29;;;;;;;;;;;;;;;17.17;100.00;93300.88;5092621;28;19970;-91
2021/05/26 01:57:55;;;;;;;;;;;;;;;17.16;100.00;93303.69;5089671;28;19924;-93
2021/05/26 02:00:21;;;;;;;;;;;;;;;17.06;100.00;93297.41;5089777;28;19977;-92
2021/05/26 02:02:47;;;;;;;;;;;;;;;17.02;100.00;93304.09;5089782;28;19928;-94
2021/05/26 02:05:14;;;;;;;;;;;;;;;17.08;100.00;93304.97;5090159;28;19924;-93
2021/05/26 02:07:44;;;;;;;;;;;;;;;17.09;100.00;93304.69;5089423;28;19954;-94
2021/05/26 02:10:11;;;;;;;;;;;;;;;17.13;100.00;93304.97;5091274;28;19970;-92
2021/05/26 02:12:43;;;;;;;;;;;;;;;17.05;100.00;93305.44;5090278;28;20417;-94
2021/05/26 02:15:10;;;;;;;;;;;;;;;16.98;100.00;93308.22;5090312;28;20283;-90
2021/05/26 02:17:36;;;;;;;;;;;;;;;16.99;100.00;93309.75;5091383;28;19924;-93
2021/05/26 02:20:03;;;;;;;;;;;;;;;16.98;100.00;93310.81;5090558;28;19928;-93
2021/05/26 02:22:30;;;;;;;;;;;;;;;16.81;100.00;93306.50;5090432;28;19928;-90
2021/05/26 02:24:56;;;;;;;;;;;;;;;16.63;100.00;93304.28;5089553;28;20295;-92
2021/05/26 02:27:22;;;;;;;;;;;;;;;16.56;100.00;93309.66;5089098;28;20434;-92
2021/05/26 02:29:53;;;;;;;;;;;;;;;16.42;100.00;93315.22;5089754;28;19939;-93
2021/05/26 02:32:23;;;;;;;;;;;;;;;16.44;100.00;93322.75;5089200;28;19927;-94
2021/05/26 02:34:49;;;;;;;;;;;;;;;16.32;100.00;93322.88;5089477;28;19931;-92
2021/05/26 02:37:17;;;;;;;;;;;;;;;16.31;100.00;93316.13;5089261;28;20341;-94
2021/05/26 02:39:51;;;;;;;;;;;;;;;16.36;100.00;93311.00;5089019;28;19924;-96
2021/05/26 02:42:19;;;;;;;;;;;;;;;16.27;100.00;93315.03;5089369;28;20022;-92
2021/05/26 02:44:45;;;;;;;;;;;;;;;16.29;100.00;93325.94;5093664;28;19978;-92
2021/05/26 02:47:12;;;;;;;;;;;;;;;16.20;100.00;93330.78;5089903;28;19938;-93
2021/05/26 02:49:38;;;;;;;;;;;;;;;16.19;100.00;93331.03;5090191;28;19924;-92
2021/05/26 02:52:53;;;;;;;;;;;;;;;;;;;;;
2021/05/26 02:55:20;;;;;;;;;;;;;;;15.69;100.00;93339.44;5052009;28;19944;-93
2021/05/26 02:57:47;;;;;;;;;;;;;;;15.67;100.00;93348.47;5055602;28;20420;-91
2021/05/26 03:15:26;;;;;;;;;;;;;;;15.58;100.00;93356.66;4919190;29;19929;-93
2021/05/26 03:17:55;;;;;;;;;;;;;;;15.71;100.00;93349.56;4936525;29;19938;-94
2021/05/26 03:20:22;;;;;;;;;;;;;;;15.65;100.00;93353.91;4961989;28;19964;-94
2021/05/26 03:22:48;;;;;;;;;;;;;;;15.50;100.00;93360.41;5030852;28;20020;-93
2021/05/26 03:25:15;;;;;;;;;;;;;;;15.49;100.00;93361.44;5029985;28;19925;-92
2021/05/26 03:36:37;;;;;;;;;;;;;;;15.90;100.00;93363.03;5001723;28;19975;-95
2021/05/26 03:39:08;;;;;;;;;;;;;;;16.02;100.00;93366.31;5050275;28;19935;-96
2021/05/26 03:42:09;;;;;;;;;;;;;;;15.99;100.00;93372.00;5051527;28;19970;-93
2021/05/26 03:44:43;;;;;;;;;;;;;;;16.00;100.00;93372.75;5047601;28;20322;-95
2021/05/26 03:47:32;;;;;;;;;;;;;;;16.11;100.00;93371.09;5071449;28;20472;-94
2021/05/26 03:53:04;;;;;;;;;;;;;;;15.77;100.00;93377.88;5115808;28;19923;-93
2021/05/26 03:59:15;;;;;;;;;;;;;;;;;;;;;
2021/05/26 04:13:47;;;;;;;;;;;;;;;15.60;100.00;93395.25;5114790;22;20387;-94
2021/05/26 04:16:13;;;;;;;;;;;;;;;15.58;100.00;93395.47;5075245;28;19956;-93
2021/05/26 04:18:40;;;;;;;;;;;;;;;15.55;100.00;93398.53;5075098;28;19924;-93
2021/05/26 04:21:06;;;;;;;;;;;;;;;15.60;100.00;93395.25;5074907;28;19931;-92
2021/05/26 04:23:32;;;;;;;;;;;;;;;15.53;100.00;93398.00;5074861;28;19925;-93
2021/05/26 04:25:58;;;;;;;;;;;;;;;15.52;100.00;93404.19;5073644;28;20389;-94
2021/05/26 04:28:24;;;;;;;;;;;;;;;15.72;100.00;93400.31;5074779;28;19928;-94
2021/05/26 04:30:51;;;;;;;;;;;;;;;15.75;100.00;93402.47;5074776;28;19924;-95
2021/05/26 04:33:17;;;;;;;;;;;;;;;15.93;100.00;93409.22;5075035;28;19931;-93
2021/05/26 04:35:44;;;;;;;;;;;;;;;16.02;100.00;93410.38;5074779;28;19924;-93
2021/05/26 04:38:10;;;;;;;;;;;;;;;16.11;100.00;93409.97;5074431;28;19974;-93
2021/05/26 04:40:36;;;;;;;;;;;;;;;16.10;100.00;93418.78;5074979;28;19925;-95
2021/05/26 04:43:02;;;;;;;;;;;;;;;16.12;100.00;93420.06;5075458;28;19924;-92
2021/05/26 04:45:28;;;;;;;;;;;;;;;16.00;100.00;93422.00;5074693;28;19924;-93
2021/05/26 04:47:55;;;;;;;;;;;;;;;15.78;100.00;93422.69;5074202;28;19931;-94
2021/05/26 04:50:21;;;;;;;;;;;;;;;15.34;100.00;93431.06;5074473;28;19924;-92
2021/05/26 04:52:47;;;;;;;;;;;;;;;15.49;100.00;93426.16;5074410;28;19924;-93
2021/05/26 04:55:14;;;;;;;;;;;;;;;15.47;100.00;93428.19;5074507;28;19982;-92
2021/05/26 04:57:40;;;;;;;;;;;;;;;15.39;100.00;93431.16;5074597;28;20390;-95
2021/05/26 05:00:07;;;;;;;;;;;;;;;15.34;100.00;93433.66;5074457;28;20674;-95
2021/05/26 05:02:33;;;;;;;;;;;;;;;15.35;100.00;93427.47;5074802;28;19924;-93
2021/05/26 05:05:00;;;;;;;;;;;;;;;15.38;100.00;93429.59;5073769;28;19924;-93
2021/05/26 05:07:26;;;;;;;;;;;;;;;15.38;100.00;93432.19;5074011;28;19977;-94
2021/05/26 05:09:52;;;;;;;;;;;;;;;15.34;100.00;93431.88;5073866;28;20291;-94
2021/05/26 05:12:18;;;;;;;;;;;;;;;15.46;100.00;93429.19;5073799;28;19920;-93
2021/05/26 05:14:44;;;;;;;;;;;;;;;15.48;100.00;93445.31;5073748;28;20061;-94
2021/05/26 05:17:10;;;;;;;;;;;;;;;15.41;100.00;93447.22;5073882;28;19924;-94
2021/05/26 05:19:36;;;;;;;;;;;;;;;15.58;100.00;93438.69;5073908;28;20329;-93
2021/05/26 05:22:04;;;;;;;;;;;;;;;15.65;100.00;93441.13;5073927;28;19925;-94
2021/05/26 05:24:30;;;;;;;;;;;;;;;15.66;100.00;93443.50;5073570;28;19932;-95
2021/05/26 05:26:56;;;;;;;;;;;;;;;15.56;100.00;93448.50;5073562;28;19924;-94
2021/05/26 05:29:22;;;;;;;;;;;;;;;15.66;100.00;93440.13;5073713;28;19931;-94
2021/05/26 05:31:48;;;;;;;;;;;;;;;15.44;100.00;93439.00;5073976;28;19929;-93
2021/05/26 05:34:14;;;;;;;;;;;;;;;15.46;100.00;93439.56;5073383;28;19931;-93
2021/05/26 05:36:40;;;;;;;;;;;;;;;15.55;100.00;93439.19;5073598;28;20371;-93
2021/05/26 05:39:07;;;;;;;;;;;;;;;15.50;100.00;93442.47;5073469;28;19998;-93
2021/05/26 05:41:33;;;;;;;;;;;;;;;15.50;100.00;93443.25;5073283;28;19925;-93
2021/05/26 05:43:59;;;;;;;;;;;;;;;15.38;100.00;93437.38;5073335;28;20354;-94
2021/05/26 05:46:25;;;;;;;;;;;;;;;15.45;100.00;93443.16;5073266;28;19932;-93
2021/05/26 05:48:51;;;;;;;;;;;;;;;15.48;100.00;93440.13;5073572;28;20445;-95
2021/05/26 05:51:17;;;;;;;;;;;;;;;15.41;100.00;93444.66;5073395;28;19924;-94
2021/05/26 05:53:43;;;;;;;;;;;;;;;15.46;100.00;93449.13;5073239;28;19973;-94
2021/05/26 05:56:10;;;;;;;;;;;;;;;15.38;100.00;93441.75;5073209;28;19931;-94
2021/05/26 05:58:36;;;;;;;;;;;;;;;15.45;100.00;93447.53;5073161;28;20378;-94
2021/05/26 06:01:03;;;;;;;;;;;;;;;15.53;100.00;93441.19;5073557;28;19947;-93
2021/05/26 06:03:29;;;;;;;;;;;;;;;15.41;100.00;93438.69;5073479;28;19928;-94
2021/05/26 06:05:55;;;;;;;;;;;;;;;15.55;100.00;93439.94;5073254;28;19924;-94
2021/05/26 06:08:21;;;;;;;;;;;;;;;15.54;100.00;93435.81;5073138;28;19925;-92
2021/05/26 06:10:47;;;;;;;;;;;;;;;15.65;100.00;93438.56;5072826;28;19925;-92
2021/05/26 06:13:14;;;;;;;;;;;;;;;15.65;100.00;93433.38;5072595;28;19929;-94
2021/05/26 06:15:40;;;;;;;;;;;;;;;15.65;100.00;93438.56;5073037;28;19931;-93
2021/05/26 06:18:06;;;;;;;;;;;;;;;15.54;100.00;93438.38;5073431;28;19928;-93
2021/05/26 06:20:32;;;;;;;;;;;;;;;15.62;100.00;93432.03;5073329;28;19924;-93
2021/05/26 06:22:58;;;;;;;;;;;;;;;15.79;100.00;93428.66;5073075;28;20278;-93
2021/05/26 06:25:26;;;;;;;;;;;;;;;15.93;100.00;93437.72;5072745;28;19926;-92
2021/05/26 06:27:52;;;;;;;;;;;;;;;15.98;100.00;93437.75;5073189;28;19924;-94
2021/05/26 06:30:19;;;;;;;;;;;;;;;16.01;100.00;93444.28;5074971;28;20319;-93
2021/05/26 06:32:45;;;;;;;;;;;;;;;16.13;100.00;93441.59;5077350;28;19925;-93
2021/05/26 06:35:12;;;;;;;;;;;;;;;16.16;100.00;93439.31;5076890;28;20429;-93
2021/05/26 06:37:38;;;;;;;;;;;;;;;16.27;100.00;93445.44;5076656;28;19925;-94
2021/05/26 06:40:05;;;;;;;;;;;;;;;16.35;100.00;93446.03;5076678;28;19931;-94
2021/05/26 06:42:31;;;;;;;;;;;;;;;16.46;100.00;93444.34;5086881;28;20248;-93
2021/05/26 06:44:58;;;;;;;;;;;;;;;16.53;100.00;93437.97;5096961;28;19930;-93
2021/05/26 06:47:25;;;;;;;;;;;;;;;16.67;100.00;93442.81;5097032;28;19947;-94
2021/05/26 06:49:51;;;;;;;;;;;;;;;16.63;100.00;93441.72;5096673;28;19930;-93
2021/05/26 06:52:17;;;;;;;;;;;;;;;16.66;100.00;93442.03;5097060;28;19944;-93
2021/05/26 06:54:43;;;;;;;;;;;;;;;16.70;100.00;93434.53;5096469;28;19924;-94
2021/05/26 06:57:09;;;;;;;;;;;;;;;16.42;100.00;93444.06;5096505;28;19931;-92
2021/05/26 06:59:35;;;;;;;;;;;;;;;16.12;100.00;93433.03;5096603;28;19953;-93
2021/05/26 07:02:01;;;;;;;;;;;;;;;15.86;100.00;93440.44;5096611;28;19973;-92
2021/05/26 07:04:28;;;;;;;;;;;;;;;15.65;100.00;93441.13;5096473;28;19931;-93
2021/05/26 07:06:55;;;;;;;;;;;;;;;15.58;100.00;93430.94;5096878;28;20272;-92
2021/05/26 07:09:21;;;;;;;;;;;;;;;15.69;100.00;93429.31;5096192;28;19931;-92
2021/05/26 07:11:47;;;;;;;;;;;;;;;15.50;100.00;93426.91;5095960;28;19939;-92
2021/05/26 07:14:13;;;;;;;;;;;;;;;15.71;100.00;93427.25;5096269;28;20371;-93
2021/05/26 07:16:39;;;;;;;;;;;;;;;15.92;100.00;93425.72;5096443;28;19925;-93
2021/05/26 07:19:07;;;;;;;;;;;;;;;15.68;100.00;93430.28;5096431;28;19925;-93
2021/05/26 07:21:34;;;;;;;;;;;;;;;15.38;100.00;93421.03;5096337;28;20023;-94
2021/05/26 07:24:00;;;;;;;;;;;;;;;15.58;100.00;93431.72;5080596;28;20042;-93
2021/05/26 07:26:28;;;;;;;;;;;;;;;15.80;100.00;93419.88;5066217;28;19977;-94
2021/05/26 07:28:54;;;;;;;;;;;;;;;15.78;100.00;93430.47;5064780;28;19924;-94
2021/05/26 07:31:20;;;;;;;;;;;;;;;15.88;100.00;93433.19;5067979;28;20294;-93
2021/05/26 07:33:46;;;;;;;;;;;;;;;15.83;100.00;93427.94;5077007;28;19925;-93
2021/05/26 07:36:12;;;;;;;;;;;;;;;16.02;100.00;93427.75;5075665;28;19932;-93
2021/05/26 07:38:40;;;;;;;;;;;;;;;16.16;100.00;93426.34;5075616;28;20252;-93
2021/05/26 07:41:06;;;;;;;;;;;;;;;16.36;100.00;93426.88;5074232;28;19931;-94
2021/05/26 07:43:33;;;;;;;;;;;;;;;16.54;100.00;93426.56;5061497;28;20050;-94
2021/05/26 07:45:59;;;;;;;;;;;;;;;16.85;100.00;93433.16;5055815;28;20322;-94
2021/05/26 07:48:25;;;;;;;;;;;;;;;16.97;100.00;93431.19;5055374;28;19925;-94
2021/05/26 07:50:51;;;;;;;;;;;;;;;17.16;100.00;93428.28;5056098;28;19925;-94
2021/05/26 07:53:18;;;;;;;;;;;;;;;17.23;100.00;93426.31;5055054;28;19931;-93
2021/05/26 07:55:45;;;;;;;;;;;;;;;17.29;100.00;93430.50;5055604;28;19924;-94
2021/05/26 07:58:11;;;;;;;;;;;;;;;17.33;100.00;93434.19;5060305;28;19925;-93
2021/05/26 08:00:37;;;;;;;;;;;;;;;17.41;100.00;93432.16;5066625;28;19924;-94
2021/05/26 08:03:04;;;;;;;;;;;;;;;17.39;100.00;93429.81;5063349;28;19924;-95
2021/05/26 08:05:30;;;;;;;;;;;;;;;17.11;100.00;93436.06;5058199;28;19964;-93
2021/05/26 08:07:56;;;;;;;;;;;;;;;17.27;100.00;93434.38;5082341;28;19924;-94
2021/05/26 08:10:22;;;;;;;;;;;;;;;17.44;100.00;93421.25;5065385;28;19924;-95
2021/05/26 08:12:49;;;;;;;;;;;;;;;17.76;100.00;93429.06;5063317;28;19929;-94
2021/05/26 08:15:15;;;;;;;;;;;;;;;17.96;99.81;93435.44;5063555;28;20347;-95
2021/05/26 08:17:42;;;;;;;;;;;;;;;18.12;99.71;93431.16;5064750;28;19929;-94
2021/05/26 08:20:09;;;;;;;;;;;;;;;18.41;96.20;93435.97;5063821;28;20375;-93
2021/05/26 08:22:35;;;;;;;;;;;;;;;18.74;93.53;93432.47;5065307;28;19928;-94
2021/05/26 08:25:01;;;;;;;;;;;;;;;19.03;91.38;93424.22;5054987;28;19925;-94
2021/05/26 08:27:28;;;;;;;;;;;;;;;19.36;90.23;93420.41;5054770;28;20320;-93
2021/05/26 08:29:55;;;;;;;;;;;;;;;19.73;89.06;93415.22;5058465;28;19931;-93
2021/05/26 08:32:21;;;;;;;;;;;;;;;20.01;88.10;93408.66;5075086;28;20016;-94
2021/05/26 08:34:49;;;;;;;;;;;;;;;20.39;86.34;93416.16;5075054;28;19982;-94
2021/05/26 08:37:15;;;;;;;;;;;;;;;20.71;86.05;93406.38;5074665;28;20045;-94
2021/05/26 08:39:41;;;;;;;;;;;;;;;20.81;85.25;93400.31;5074606;28;19925;-93
2021/05/26 08:42:07;;;;;;;;;;;;;;;19.91;89.03;93395.66;5074385;28;19974;-94
2021/05/26 08:44:33;;;;;;;;;;;;;;;20.27;88.01;93394.81;5092760;28;19931;-93
2021/05/26 08:47:01;;;;;;;;;;;;;;;20.32;86.75;93404.44;5094623;28;19924;-94
2021/05/26 08:49:27;;;;;;;;;;;;;;;20.59;87.21;93403.31;5084112;28;19924;-95
2021/05/26 08:51:54;;;;;;;;;;;;;;;20.87;84.77;93396.66;5075864;28;19962;-96
2021/05/26 08:54:20;;;;;;;;;;;;;;;20.39;86.31;93405.72;5076930;28;19924;-94
2021/05/26 08:56:46;;;;;;;;;;;;;;;20.81;85.23;93397.72;5094811;28;19924;-95
2021/05/26 08:59:15;;;;;;;;;;;;;;;20.51;86.04;93396.81;5094456;28;19928;-94
2021/05/26 09:01:45;;;;;;;;;;;;;;;19.94;86.89;93413.34;5094877;28;20014;-94
2021/05/26 09:04:29;;;;;;;;;;;;;;;20.23;88.66;93399.00;5079888;28;19925;-93
2021/05/26 09:07:08;;;;;;;;;;;;;;;20.05;89.36;93397.72;5074744;28;19929;-93
2021/05/26 09:09:45;;;;;;;;;;;;;;;20.02;89.66;93392.00;5074313;28;20278;-93
2021/05/26 09:12:12;;;;;;;;;;;;;;;20.23;88.63;93391.94;5073684;28;19924;-93
2021/05/26 09:14:38;;;;;;;;;;;;;;;20.60;87.81;93389.97;5073706;28;19924;-94
2021/05/26 09:17:10;;;;;;;;;;;;;;;20.39;86.94;93394.50;5074065;28;19924;-95
2021/05/26 09:19:38;;;;;;;;;;;;;;;20.01;88.58;93390.41;5074053;28;20366;-94
2021/05/26 09:22:09;;;;;;;;;;;;;;;19.73;89.13;93382.09;5073802;28;19925;-93
2021/05/26 09:24:35;;;;;;;;;;;;;;;19.81;90.08;93378.19;5073754;28;20023;-93
2021/05/26 09:27:02;;;;;;;;;;;;;;;19.97;90.79;93372.97;5073811;28;19929;-93
2021/05/26 09:29:29;;;;;;;;;;;;;;;20.11;89.39;93368.78;5073435;28;19924;-92
2021/05/26 09:32:09;;;;;;;;;;;;;;;20.36;89.68;93371.56;5073719;28;20314;-94
2021/05/26 09:34:39;;;;;;;;;;;;;;;19.99;87.88;93370.88;5073137;28;22153;-93
2021/05/26 09:37:05;;;;;;;;;;;;;;;20.10;90.56;93371.63;5073540;28;19924;-92
2021/05/26 09:39:47;;;;;;;;;;;;;;;20.70;88.73;93361.22;5073972;28;20342;-93
2021/05/26 09:42:23;;;;;;;;;;;;;;;21.24;88.68;93358.03;5073362;28;19931;-94
2021/05/26 09:45:04;;;;;;;;;;;;;;;21.66;84.98;93366.34;5073342;28;20279;-93
2021/05/26 09:47:34;;;;;;;;;;;;;;;21.87;81.34;93358.34;5073255;28;20290;-93
2021/05/26 09:50:14;;;;;;;;;;;;;;;22.32;81.24;93350.28;5073760;28;19947;-92
2021/05/26 09:52:51;;;;;;;;;;;;;;;22.67;78.85;93360.59;5073469;28;19931;-94
2021/05/26 09:55:20;;;;;;;;;;;;;;;22.44;79.16;93347.25;5073223;28;19967;-93
2021/05/26 09:57:49;;;;;;;;;;;;;;;23.04;79.22;93348.59;5073533;28;19971;-94
2021/05/26 10:00:16;;;;;;;;;;;;;;;23.10;75.98;93341.44;5072775;28;19924;-93
2021/05/26 10:02:42;;;;;;;;;;;;;;;23.71;76.81;93341.56;5073341;28;19925;-91
2021/05/26 10:05:09;;;;;;;;;;;;;;;23.99;74.56;93338.19;5072891;28;19928;-92
2021/05/26 10:07:37;;;;;;;;;;;;;;;24.24;72.85;93331.69;5072938;28;19931;-92
2021/05/26 10:10:04;;;;;;;;;;;;;;;24.64;75.08;93327.75;5073556;28;20321;-93
2021/05/26 10:12:32;;;;;;;;;;;;;;;25.28;70.74;93318.22;5073483;28;20391;-92
2021/05/26 10:15:00;;;;;;;;;;;;;;;25.20;69.67;93306.56;5073399;28;20275;-92
2021/05/26 10:17:33;;;;;;;;;;;;;;;24.80;71.41;93309.81;5073107;28;20011;-93
2021/05/26 10:20:00;;;;;;;;;;;;;;;25.10;69.08;93304.97;5073516;28;20305;-93
2021/05/26 10:22:27;;;;;;;;;;;;;;;25.00;70.25;93299.94;5073719;28;20042;-93
2021/05/26 10:24:55;;;;;;;;;;;;;;;25.42;69.43;93297.13;5073760;28;20020;-92
2021/05/26 10:27:34;;;;;;;;;;;;;;;24.93;71.37;93295.88;5074692;28;19925;-93
2021/05/26 10:30:01;;;;;;;;;;;;;;;24.84;70.05;93294.28;5073142;28;20426;-94
2021/05/26 10:32:32;;;;;;;;;;;;;;;24.86;71.16;93292.91;5094904;28;19924;-93
2021/05/26 10:35:05;;;;;;;;;;;;;;;24.10;72.69;93289.72;5093659;28;19955;-93
2021/05/26 10:37:33;;;;;;;;;;;;;;;24.37;73.37;93277.63;5093469;28;19924;-93
2021/05/26 10:40:00;;;;;;;;;;;;;;;24.34;73.13;93278.22;5094653;28;19924;-93
2021/05/26 10:42:31;;;;;;;;;;;;;;;24.55;71.92;93273.31;5094943;28;19978;-94
2021/05/26 10:44:58;;;;;;;;;;;;;;;24.41;72.65;93268.09;5093742;28;19931;-93
2021/05/26 10:47:43;;;;;;;;;;;;;;;24.57;74.74;93267.00;5093719;28;19924;-93
2021/05/26 10:50:15;;;;;;;;;;;;;;;23.87;73.04;93268.59;5093155;28;19944;-93
2021/05/26 10:53:01;;;;;;;;;;;;;;;24.52;75.22;93255.53;5093316;28;20017;-93
2021/05/26 10:55:35;;;;;;;;;;;;;;;24.50;72.88;93259.50;5081322;28;19990;-93
2021/05/26 10:58:12;;;;;;;;;;;;;;;25.03;70.13;93257.28;5073035;28;20356;-94
2021/05/26 11:00:38;;;;;;;;;;;;;;;25.48;68.43;93251.22;5073084;28;20255;-94
2021/05/26 11:03:23;;;;;;;;;;;;;;;25.20;67.27;93256.63;5073412;28;19931;-93
2021/05/26 11:05:49;;;;;;;;;;;;;;;25.76;67.63;93251.03;5072934;28;19931;-93
2021/05/26 11:08:32;;;;;;;;;;;;;;;25.38;67.90;93244.38;5072649;28;19932;-91
2021/05/26 11:11:19;;;;;;;;;;;;;;;25.42;69.77;93241.91;5073003;28;19931;-93
2021/05/26 11:13:59;;;;;;;;;;;;;;;25.83;69.93;93240.84;5088848;28;19924;-94
2021/05/26 11:16:35;;;;;;;;;;;;;;;26.40;65.69;93236.66;5096070;28;19957;-93
2021/05/26 11:19:10;;;;;;;;;;;;;;;25.96;65.95;93238.41;5096716;28;20323;-92
2021/05/26 11:21:36;;;;;;;;;;;;;;;25.82;66.69;93241.16;5096929;28;20359;-93
2021/05/26 11:24:04;;;;;;;;;;;;;;;25.73;66.63;93228.00;5096359;28;19924;-93
2021/05/26 11:26:32;;;;;;;;;;;;;;;25.45;69.37;93222.88;5096787;28;19977;-94
2021/05/26 11:28:58;;;;;;;;;;;;;;;25.39;68.82;93224.88;5096368;28;20029;-93
2021/05/26 11:31:24;;;;;;;;;;;;;;;25.45;69.66;93218.41;5096321;28;19924;-93
2021/05/26 11:33:54;;;;;;;;;;;;;;;25.99;67.04;93216.75;5096590;28;19924;-92
2021/05/26 11:36:20;;;;;;;;;;;;;;;25.71;67.43;93215.13;5096072;28;19924;-93
2021/05/26 11:38:53;;;;;;;;;;;;;;;26.17;67.42;93209.66;5096403;28;19928;-93
2021/05/26 11:41:19;;;;;;;;;;;;;;;26.44;66.48;93205.22;5087173;28;19963;-94
2021/05/26 11:43:46;;;;;;;;;;;;;;;26.36;65.40;93209.38;5076729;28;19928;-94
2021/05/26 11:46:25;;;;;;;;;;;;;;;25.30;69.19;93195.91;5076076;28;20277;-94
2021/05/26 11:48:51;;;;;;;;;;;;;;;25.71;67.33;93198.56;5075867;28;19924;-95
2021/05/26 11:51:23;;;;;;;;;;;;;;;26.01;67.97;93196.16;5076143;28;20008;-92
2021/05/26 11:53:53;;;;;;;;;;;;;;;25.84;66.62;93191.63;5079682;28;20085;-96
2021/05/26 11:56:20;;;;;;;;;;;;;;;25.44;67.59;93202.94;5076345;28;20648;-93
2021/05/26 11:58:47;;;;;;;;;;;;;;;25.27;69.95;93196.50;5078312;28;19972;-95
2021/05/26 12:01:14;;;;;;;;;;;;;;;25.18;68.00;93193.09;5076090;28;19924;-94
2021/05/26 12:03:41;;;;;;;;;;;;;;;25.13;68.46;93188.72;5082084;28;20066;-96
2021/05/26 12:06:07;;;;;;;;;;;;;;;25.07;70.08;93189.94;5080863;28;19924;-96
2021/05/26 12:08:37;;;;;;;;;;;;;;;25.87;68.94;93173.38;5078429;28;19931;-93
2021/05/26 12:11:04;;;;;;;;;;;;;;;26.42;65.91;93173.13;5074687;28;19925;-95
2021/05/26 12:13:45;;;;;;;;;;;;;;;26.95;64.98;93165.19;5077322;28;19932;-96
2021/05/26 12:16:12;;;;;;;;;;;;;;;27.46;64.71;93167.94;5076004;28;20313;-95
2021/05/26 12:18:39;;;;;;;;;;;;;;;27.69;62.57;93165.09;5076050;28;20016;-96
2021/05/26 12:21:06;;;;;;;;;;;;;;;26.73;63.30;93166.13;5075448;28;19924;-94
2021/05/26 12:23:34;;;;;;;;;;;;;;;26.28;64.08;93168.81;5074802;28;19925;-92
2021/05/26 12:26:00;;;;;;;;;;;;;;;26.58;63.75;93160.28;5074637;28;19931;-93
2021/05/26 12:28:28;;;;;;;;;;;;;;;27.05;62.15;93154.31;5074324;28;20405;-94
2021/05/26 12:30:55;;;;;;;;;;;;;;;26.53;65.52;93155.94;5075020;28;19924;-92
2021/05/26 12:33:23;;;;;;;;;;;;;;;26.06;66.05;93161.78;5074918;28;20375;-96
2021/05/26 12:36:03;;;;;;;;;;;;;;;26.36;65.35;93153.31;5076015;28;19955;-95
2021/05/26 12:38:33;;;;;;;;;;;;;;;25.13;67.71;93148.53;5073799;28;20256;-95
2021/05/26 12:41:17;;;;;;;;;;;;;;;25.17;67.89;93154.72;5074564;28;19928;-95
2021/05/26 12:43:43;;;;;;;;;;;;;;;24.55;70.69;93143.88;5074598;28;19925;-95
2021/05/26 12:46:09;;;;;;;;;;;;;;;24.92;71.19;93146.41;5074931;28;19973;-94
2021/05/26 12:48:36;;;;;;;;;;;;;;;24.94;68.44;93141.63;5074379;28;19924;-96
2021/05/26 12:51:03;;;;;;;;;;;;;;;25.08;69.81;93136.28;5074577;28;19924;-93
2021/05/26 12:53:33;;;;;;;;;;;;;;;25.51;68.90;93137.53;5075263;28;19924;-94
2021/05/26 12:55:59;;;;;;;;;;;;;;;25.82;67.23;93123.53;5090914;28;19967;-95
2021/05/26 12:58:25;;;;;;;;;;;;;;;26.37;66.54;93116.13;5098040;28;19924;-96
2021/05/26 13:00:52;;;;;;;;;;;;;;;26.49;65.47;93117.38;5094855;28;19924;-95
2021/05/26 13:03:19;;;;;;;;;;;;;;;26.78;63.96;93114.06;5099289;28;19908;-96
2021/05/26 13:05:48;;;;;;;;;;;;;;;26.58;67.73;93117.34;5103348;28;20015;-96
2021/05/26 13:08:15;;;;;;;;;;;;;;;26.80;65.26;93106.59;5103303;28;19924;-96
2021/05/26 13:10:51;;;;;;;;;;;;;;;27.35;65.67;93096.34;5098747;28;19925;-96
2021/05/26 13:13:25;;;;;;;;;;;;;;;27.63;62.48;93095.09;5099919;28;19945;-96
2021/05/26 13:15:52;;;;;;;;;;;;;;;27.22;62.40;93099.97;5143883;22;19973;-94
2021/05/26 13:18:19;;;;;;;;;;;;;;;27.45;62.37;93099.72;5095303;28;19997;-95
2021/05/26 13:20:46;;;;;;;;;;;;;;;27.42;61.02;93106.38;5094907;28;20285;-93
2021/05/26 13:23:14;;;;;;;;;;;;;;;27.16;62.44;93104.63;5096864;28;19924;-96
2021/05/26 13:25:41;;;;;;;;;;;;;;;27.13;62.99;93100.00;5095317;28;19924;-95
2021/05/26 13:28:10;;;;;;;;;;;;;;;27.55;61.86;93090.66;5095251;28;19971;-96
2021/05/26 13:30:37;;;;;;;;;;;;;;;27.69;60.82;93090.44;5095395;28;19962;-96
2021/05/26 13:33:06;;;;;;;;;;;;;;;27.79;59.49;93086.63;5096566;28;19924;-96
2021/05/26 13:35:33;;;;;;;;;;;;;;;26.97;62.34;93089.22;5099197;28;19928;-95
2021/05/26 13:38:00;;;;;;;;;;;;;;;25.93;64.75;93089.03;5099180;28;19928;-96